sensor_id;sensor_type;location;lat;lon;timestamp;P1;P2;P0
69123;PMS5003;56232;53.384;-2.732;2022-07-19T00:01:14;10;10;
69123;PMS5003;56232;53.384;-2.732;2022-07-19T00:03:40;11;11;
69123;PMS5003;56232;53.384;-2.732;2022-07-19T00:06:05;10;10;
69123;PMS5003;56232;53.384;-2.732;2022-07-19T00:08:31;11;11;
69123;PMS5003;56232;53.384;-2.732;2022-07-19T00:10:56;11;10;
69123;PMS5003;56232;53.384;-2.732;2022-07-19T00:13:22;9;9;
69123;PMS5003;56232;53.384;-2.732;2022-07-19T00:15:47;10;9;
69123;PMS5003;56232;53.384;-2.732;2022-07-19T00:18:14;9;9;
69123;PMS5003;56232;53.384;-2.732;2022-07-19T00:20:39;15;12;
69123;PMS5003;56232;53.384;-2.732;2022-07-19T00:23:04;12;12;
69123;PMS5003;56232;53.384;-2.732;2022-07-19T00:25:30;14;14;
69123;PMS5003;56232;53.384;-2.732;2022-07-19T00:27:55;12;11;
69123;PMS5003;56232;53.384;-2.732;2022-07-19T00:30:21;14;14;
69123;PMS5003;56232;53.384;-2.732;2022-07-19T00:32:46;13;13;
69123;PMS5003;56232;53.384;-2.732;2022-07-19T00:35:12;11;11;
69123;PMS5003;56232;53.384;-2.732;2022-07-19T00:37:37;14;13;
69123;PMS5003;56232;53.384;-2.732;2022-07-19T00:40:02;14;13;
69123;PMS5003;56232;53.384;-2.732;2022-07-19T00:42:28;14;14;
69123;PMS5003;56232;53.384;-2.732;2022-07-19T00:44:53;11;10;
69123;PMS5003;56232;53.384;-2.732;2022-07-19T00:47:19;13;12;
69123;PMS5003;56232;53.384;-2.732;2022-07-19T00:49:45;13;13;
69123;PMS5003;56232;53.384;-2.732;2022-07-19T00:52:10;12;12;
69123;PMS5003;56232;53.384;-2.732;2022-07-19T00:54:36;13;13;
69123;PMS5003;56232;53.384;-2.732;2022-07-19T00:57:02;12;12;
69123;PMS5003;56232;53.384;-2.732;2022-07-19T00:59:26;12;12;
69123;PMS5003;56232;53.384;-2.732;2022-07-19T01:01:52;14;13;
69123;PMS5003;56232;53.384;-2.732;2022-07-19T01:04:17;13;13;
69123;PMS5003;56232;53.384;-2.732;2022-07-19T01:06:43;13;13;
69123;PMS5003;56232;53.384;-2.732;2022-07-19T01:09:09;12;12;
69123;PMS5003;56232;53.384;-2.732;2022-07-19T01:11:34;13;13;
69123;PMS5003;56232;53.384;-2.732;2022-07-19T01:14:00;14;13;
69123;PMS5003;56232;53.384;-2.732;2022-07-19T01:16:25;13;13;
69123;PMS5003;56232;53.384;-2.732;2022-07-19T01:18:51;14;14;
69123;PMS5003;56232;53.384;-2.732;2022-07-19T01:21:18;15;15;
69123;PMS5003;56232;53.384;-2.732;2022-07-19T01:23:42;14;14;
69123;PMS5003;56232;53.384;-2.732;2022-07-19T01:26:08;14;14;
69123;PMS5003;56232;53.384;-2.732;2022-07-19T01:28:34;14;14;
69123;PMS5003;56232;53.384;-2.732;2022-07-19T01:30:59;14;14;
69123;PMS5003;56232;53.384;-2.732;2022-07-19T01:33:24;14;14;
69123;PMS5003;56232;53.384;-2.732;2022-07-19T01:35:50;14;14;
69123;PMS5003;56232;53.384;-2.732;2022-07-19T01:38:15;13;13;
69123;PMS5003;56232;53.384;-2.732;2022-07-19T01:40:41;15;15;
69123;PMS5003;56232;53.384;-2.732;2022-07-19T01:43:07;15;14;
69123;PMS5003;56232;53.384;-2.732;2022-07-19T01:45:32;14;14;
69123;PMS5003;56232;53.384;-2.732;2022-07-19T01:47:57;16;15;
69123;PMS5003;56232;53.384;-2.732;2022-07-19T01:50:23;16;15;
69123;PMS5003;56232;53.384;-2.732;2022-07-19T01:52:48;15;15;
69123;PMS5003;56232;53.384;-2.732;2022-07-19T01:55:14;14;13;
69123;PMS5003;56232;53.384;-2.732;2022-07-19T01:57:40;13;13;
69123;PMS5003;56232;53.384;-2.732;2022-07-19T02:00:06;14;13;
69123;PMS5003;56232;53.384;-2.732;2022-07-19T02:02:31;15;14;
69123;PMS5003;56232;53.384;-2.732;2022-07-19T02:04:56;15;15;
69123;PMS5003;56232;53.384;-2.732;2022-07-19T02:07:22;16;16;
69123;PMS5003;56232;53.384;-2.732;2022-07-19T02:09:48;15;14;
69123;PMS5003;56232;53.384;-2.732;2022-07-19T02:12:13;15;15;
69123;PMS5003;56232;53.384;-2.732;2022-07-19T02:14:39;14;14;
69123;PMS5003;56232;53.384;-2.732;2022-07-19T02:17:04;13;13;
69123;PMS5003;56232;53.384;-2.732;2022-07-19T02:19:30;16;15;
69123;PMS5003;56232;53.384;-2.732;2022-07-19T02:21:56;15;15;
69123;PMS5003;56232;53.384;-2.732;2022-07-19T02:24:21;16;15;
69123;PMS5003;56232;53.384;-2.732;2022-07-19T02:26:47;14;14;
69123;PMS5003;56232;53.384;-2.732;2022-07-19T02:29:12;15;14;
69123;PMS5003;56232;53.384;-2.732;2022-07-19T02:31:38;16;16;
69123;PMS5003;56232;53.384;-2.732;2022-07-19T02:34:03;16;16;
69123;PMS5003;56232;53.384;-2.732;2022-07-19T02:36:30;15;14;
69123;PMS5003;56232;53.384;-2.732;2022-07-19T02:38:55;16;16;
69123;PMS5003;56232;53.384;-2.732;2022-07-19T02:41:20;14;14;
69123;PMS5003;56232;53.384;-2.732;2022-07-19T02:43:46;15;15;
69123;PMS5003;56232;53.384;-2.732;2022-07-19T02:46:11;18;18;
69123;PMS5003;56232;53.384;-2.732;2022-07-19T02:48:37;18;18;
69123;PMS5003;56232;53.384;-2.732;2022-07-19T02:51:02;15;15;
69123;PMS5003;56232;53.384;-2.732;2022-07-19T02:53:28;18;17;
69123;PMS5003;56232;53.384;-2.732;2022-07-19T02:55:53;15;15;
69123;PMS5003;56232;53.384;-2.732;2022-07-19T02:58:19;16;16;
69123;PMS5003;56232;53.384;-2.732;2022-07-19T03:00:44;17;17;
69123;PMS5003;56232;53.384;-2.732;2022-07-19T03:03:10;18;17;
69123;PMS5003;56232;53.384;-2.732;2022-07-19T03:05:36;17;17;
69123;PMS5003;56232;53.384;-2.732;2022-07-19T03:08:01;16;15;
69123;PMS5003;56232;53.384;-2.732;2022-07-19T03:10:26;16;16;
69123;PMS5003;56232;53.384;-2.732;2022-07-19T03:12:52;18;18;
69123;PMS5003;56232;53.384;-2.732;2022-07-19T03:15:17;17;17;
69123;PMS5003;56232;53.384;-2.732;2022-07-19T03:17:43;17;17;
69123;PMS5003;56232;53.384;-2.732;2022-07-19T03:20:09;19;18;
69123;PMS5003;56232;53.384;-2.732;2022-07-19T03:22:34;18;17;
69123;PMS5003;56232;53.384;-2.732;2022-07-19T03:24:59;18;18;
69123;PMS5003;56232;53.384;-2.732;2022-07-19T03:27:25;19;19;
69123;PMS5003;56232;53.384;-2.732;2022-07-19T03:29:51;18;18;
69123;PMS5003;56232;53.384;-2.732;2022-07-19T03:32:16;19;18;
69123;PMS5003;56232;53.384;-2.732;2022-07-19T03:34:41;21;20;
69123;PMS5003;56232;53.384;-2.732;2022-07-19T03:37:07;18;18;
69123;PMS5003;56232;53.384;-2.732;2022-07-19T03:39:32;22;22;
69123;PMS5003;56232;53.384;-2.732;2022-07-19T03:41:57;20;20;
69123;PMS5003;56232;53.384;-2.732;2022-07-19T03:44:23;21;21;
69123;PMS5003;56232;53.384;-2.732;2022-07-19T03:46:49;22;21;
69123;PMS5003;56232;53.384;-2.732;2022-07-19T03:49:14;22;21;
69123;PMS5003;56232;53.384;-2.732;2022-07-19T03:51:39;20;20;
69123;PMS5003;56232;53.384;-2.732;2022-07-19T03:54:05;23;22;
69123;PMS5003;56232;53.384;-2.732;2022-07-19T03:56:31;20;19;
69123;PMS5003;56232;53.384;-2.732;2022-07-19T03:58:57;23;22;
69123;PMS5003;56232;53.384;-2.732;2022-07-19T04:01:22;18;18;
69123;PMS5003;56232;53.384;-2.732;2022-07-19T04:03:47;21;21;
69123;PMS5003;56232;53.384;-2.732;2022-07-19T04:06:13;20;20;
69123;PMS5003;56232;53.384;-2.732;2022-07-19T04:08:38;18;18;
69123;PMS5003;56232;53.384;-2.732;2022-07-19T04:11:04;20;20;
69123;PMS5003;56232;53.384;-2.732;2022-07-19T04:13:31;24;23;
69123;PMS5003;56232;53.384;-2.732;2022-07-19T04:15:54;23;22;
69123;PMS5003;56232;53.384;-2.732;2022-07-19T04:18:20;22;22;
69123;PMS5003;56232;53.384;-2.732;2022-07-19T04:20:45;22;21;
69123;PMS5003;56232;53.384;-2.732;2022-07-19T04:23:11;19;19;
69123;PMS5003;56232;53.384;-2.732;2022-07-19T04:25:37;21;21;
69123;PMS5003;56232;53.384;-2.732;2022-07-19T04:28:02;20;20;
69123;PMS5003;56232;53.384;-2.732;2022-07-19T04:30:28;25;24;
69123;PMS5003;56232;53.384;-2.732;2022-07-19T04:32:53;23;23;
69123;PMS5003;56232;53.384;-2.732;2022-07-19T04:35:18;20;20;
69123;PMS5003;56232;53.384;-2.732;2022-07-19T04:37:43;22;20;
69123;PMS5003;56232;53.384;-2.732;2022-07-19T04:40:09;22;22;
69123;PMS5003;56232;53.384;-2.732;2022-07-19T04:42:34;21;20;
69123;PMS5003;56232;53.384;-2.732;2022-07-19T04:44:59;21;21;
69123;PMS5003;56232;53.384;-2.732;2022-07-19T04:47:24;19;19;
69123;PMS5003;56232;53.384;-2.732;2022-07-19T04:49:49;20;20;
69123;PMS5003;56232;53.384;-2.732;2022-07-19T04:52:15;26;24;
69123;PMS5003;56232;53.384;-2.732;2022-07-19T04:54:40;23;22;
69123;PMS5003;56232;53.384;-2.732;2022-07-19T04:57:06;20;20;
69123;PMS5003;56232;53.384;-2.732;2022-07-19T04:59:31;20;19;
69123;PMS5003;56232;53.384;-2.732;2022-07-19T05:01:56;23;22;
69123;PMS5003;56232;53.384;-2.732;2022-07-19T05:04:22;19;19;
69123;PMS5003;56232;53.384;-2.732;2022-07-19T05:06:47;20;20;
69123;PMS5003;56232;53.384;-2.732;2022-07-19T05:09:13;18;17;
69123;PMS5003;56232;53.384;-2.732;2022-07-19T05:11:38;19;18;
69123;PMS5003;56232;53.384;-2.732;2022-07-19T05:14:04;23;21;
69123;PMS5003;56232;53.384;-2.732;2022-07-19T05:16:30;19;18;
69123;PMS5003;56232;53.384;-2.732;2022-07-19T05:18:55;20;18;
69123;PMS5003;56232;53.384;-2.732;2022-07-19T05:21:21;17;17;
69123;PMS5003;56232;53.384;-2.732;2022-07-19T05:23:46;19;17;
69123;PMS5003;56232;53.384;-2.732;2022-07-19T05:26:12;21;20;
69123;PMS5003;56232;53.384;-2.732;2022-07-19T05:28:37;19;19;
69123;PMS5003;56232;53.384;-2.732;2022-07-19T05:31:03;21;21;
69123;PMS5003;56232;53.384;-2.732;2022-07-19T05:33:28;19;18;
69123;PMS5003;56232;53.384;-2.732;2022-07-19T05:35:53;22;21;
69123;PMS5003;56232;53.384;-2.732;2022-07-19T05:38:19;23;22;
69123;PMS5003;56232;53.384;-2.732;2022-07-19T05:40:45;17;17;
69123;PMS5003;56232;53.384;-2.732;2022-07-19T05:43:10;18;18;
69123;PMS5003;56232;53.384;-2.732;2022-07-19T05:45:36;18;17;
69123;PMS5003;56232;53.384;-2.732;2022-07-19T05:48:02;19;18;
69123;PMS5003;56232;53.384;-2.732;2022-07-19T05:50:27;20;19;
69123;PMS5003;56232;53.384;-2.732;2022-07-19T05:52:53;17;17;
69123;PMS5003;56232;53.384;-2.732;2022-07-19T05:55:18;22;20;
69123;PMS5003;56232;53.384;-2.732;2022-07-19T05:57:44;20;18;
69123;PMS5003;56232;53.384;-2.732;2022-07-19T06:00:09;18;17;
69123;PMS5003;56232;53.384;-2.732;2022-07-19T06:02:34;22;22;
69123;PMS5003;56232;53.384;-2.732;2022-07-19T06:05:00;18;17;
69123;PMS5003;56232;53.384;-2.732;2022-07-19T06:07:25;19;18;
69123;PMS5003;56232;53.384;-2.732;2022-07-19T06:09:51;18;17;
69123;PMS5003;56232;53.384;-2.732;2022-07-19T06:12:17;18;18;
69123;PMS5003;56232;53.384;-2.732;2022-07-19T06:14:42;20;19;
69123;PMS5003;56232;53.384;-2.732;2022-07-19T06:17:07;16;16;
69123;PMS5003;56232;53.384;-2.732;2022-07-19T06:19:33;18;17;
69123;PMS5003;56232;53.384;-2.732;2022-07-19T06:21:58;16;15;
69123;PMS5003;56232;53.384;-2.732;2022-07-19T06:24:24;17;16;
69123;PMS5003;56232;53.384;-2.732;2022-07-19T06:26:50;15;15;
69123;PMS5003;56232;53.384;-2.732;2022-07-19T06:29:15;13;13;
69123;PMS5003;56232;53.384;-2.732;2022-07-19T06:31:41;15;15;
69123;PMS5003;56232;53.384;-2.732;2022-07-19T06:34:06;14;14;
69123;PMS5003;56232;53.384;-2.732;2022-07-19T06:36:32;14;14;
69123;PMS5003;56232;53.384;-2.732;2022-07-19T06:38:57;13;13;
69123;PMS5003;56232;53.384;-2.732;2022-07-19T06:41:23;16;16;
69123;PMS5003;56232;53.384;-2.732;2022-07-19T06:43:48;16;16;
69123;PMS5003;56232;53.384;-2.732;2022-07-19T06:46:14;16;16;
69123;PMS5003;56232;53.384;-2.732;2022-07-19T06:48:39;17;17;
69123;PMS5003;56232;53.384;-2.732;2022-07-19T06:51:05;14;14;
69123;PMS5003;56232;53.384;-2.732;2022-07-19T06:53:31;14;14;
69123;PMS5003;56232;53.384;-2.732;2022-07-19T06:55:56;16;15;
69123;PMS5003;56232;53.384;-2.732;2022-07-19T06:58:21;12;12;
69123;PMS5003;56232;53.384;-2.732;2022-07-19T07:00:47;14;14;
69123;PMS5003;56232;53.384;-2.732;2022-07-19T07:03:13;16;16;
69123;PMS5003;56232;53.384;-2.732;2022-07-19T07:05:38;15;15;
69123;PMS5003;56232;53.384;-2.732;2022-07-19T07:08:04;13;13;
69123;PMS5003;56232;53.384;-2.732;2022-07-19T07:10:30;15;15;
69123;PMS5003;56232;53.384;-2.732;2022-07-19T07:12:55;14;14;
69123;PMS5003;56232;53.384;-2.732;2022-07-19T07:15:20;17;16;
69123;PMS5003;56232;53.384;-2.732;2022-07-19T07:17:46;14;14;
69123;PMS5003;56232;53.384;-2.732;2022-07-19T07:20:12;16;16;
69123;PMS5003;56232;53.384;-2.732;2022-07-19T07:22:37;17;17;
69123;PMS5003;56232;53.384;-2.732;2022-07-19T07:25:03;14;14;
69123;PMS5003;56232;53.384;-2.732;2022-07-19T07:27:29;15;15;
69123;PMS5003;56232;53.384;-2.732;2022-07-19T07:29:54;13;13;
69123;PMS5003;56232;53.384;-2.732;2022-07-19T07:32:19;14;14;
69123;PMS5003;56232;53.384;-2.732;2022-07-19T07:34:45;15;15;
69123;PMS5003;56232;53.384;-2.732;2022-07-19T07:37:11;15;14;
69123;PMS5003;56232;53.384;-2.732;2022-07-19T07:39:36;13;13;
69123;PMS5003;56232;53.384;-2.732;2022-07-19T07:42:02;15;15;
69123;PMS5003;56232;53.384;-2.732;2022-07-19T07:44:27;16;16;
69123;PMS5003;56232;53.384;-2.732;2022-07-19T07:46:53;17;16;
69123;PMS5003;56232;53.384;-2.732;2022-07-19T07:49:18;15;15;
69123;PMS5003;56232;53.384;-2.732;2022-07-19T07:51:43;16;16;
69123;PMS5003;56232;53.384;-2.732;2022-07-19T07:54:14;13;13;
69123;PMS5003;56232;53.384;-2.732;2022-07-19T07:56:34;16;16;
69123;PMS5003;56232;53.384;-2.732;2022-07-19T07:58:59;15;14;
69123;PMS5003;56232;53.384;-2.732;2022-07-19T08:01:25;14;14;
69123;PMS5003;56232;53.384;-2.732;2022-07-19T08:03:51;13;13;
69123;PMS5003;56232;53.384;-2.732;2022-07-19T08:06:16;12;12;
69123;PMS5003;56232;53.384;-2.732;2022-07-19T08:08:41;16;15;
69123;PMS5003;56232;53.384;-2.732;2022-07-19T08:11:07;13;13;
69123;PMS5003;56232;53.384;-2.732;2022-07-19T08:13:33;13;12;
69123;PMS5003;56232;53.384;-2.732;2022-07-19T08:15:58;12;12;
69123;PMS5003;56232;53.384;-2.732;2022-07-19T08:18:24;12;12;
69123;PMS5003;56232;53.384;-2.732;2022-07-19T08:20:49;14;14;
69123;PMS5003;56232;53.384;-2.732;2022-07-19T08:23:15;14;13;
69123;PMS5003;56232;53.384;-2.732;2022-07-19T08:25:40;13;13;
69123;PMS5003;56232;53.384;-2.732;2022-07-19T08:28:06;14;13;
69123;PMS5003;56232;53.384;-2.732;2022-07-19T08:30:31;14;14;
69123;PMS5003;56232;53.384;-2.732;2022-07-19T08:32:57;15;15;
69123;PMS5003;56232;53.384;-2.732;2022-07-19T08:35:23;15;14;
69123;PMS5003;56232;53.384;-2.732;2022-07-19T08:37:49;14;14;
69123;PMS5003;56232;53.384;-2.732;2022-07-19T08:40:14;13;13;
69123;PMS5003;56232;53.384;-2.732;2022-07-19T08:42:39;15;14;
69123;PMS5003;56232;53.384;-2.732;2022-07-19T08:45:06;15;14;
69123;PMS5003;56232;53.384;-2.732;2022-07-19T08:47:31;13;13;
69123;PMS5003;56232;53.384;-2.732;2022-07-19T08:49:56;14;14;
69123;PMS5003;56232;53.384;-2.732;2022-07-19T08:52:21;14;13;
69123;PMS5003;56232;53.384;-2.732;2022-07-19T08:54:46;12;12;
69123;PMS5003;56232;53.384;-2.732;2022-07-19T08:57:12;16;16;
69123;PMS5003;56232;53.384;-2.732;2022-07-19T08:59:37;12;12;
69123;PMS5003;56232;53.384;-2.732;2022-07-19T09:02:03;13;13;
69123;PMS5003;56232;53.384;-2.732;2022-07-19T09:04:29;11;11;
69123;PMS5003;56232;53.384;-2.732;2022-07-19T09:06:54;12;12;
69123;PMS5003;56232;53.384;-2.732;2022-07-19T09:09:20;14;13;
69123;PMS5003;56232;53.384;-2.732;2022-07-19T09:11:46;14;14;
69123;PMS5003;56232;53.384;-2.732;2022-07-19T09:14:10;12;12;
69123;PMS5003;56232;53.384;-2.732;2022-07-19T09:19:03;13;12;
69123;PMS5003;56232;53.384;-2.732;2022-07-19T09:21:27;14;14;
69123;PMS5003;56232;53.384;-2.732;2022-07-19T09:23:56;15;14;
69123;PMS5003;56232;53.384;-2.732;2022-07-19T09:26:18;14;13;
69123;PMS5003;56232;53.384;-2.732;2022-07-19T09:28:43;14;13;
69123;PMS5003;56232;53.384;-2.732;2022-07-19T09:31:09;15;14;
69123;PMS5003;56232;53.384;-2.732;2022-07-19T09:33:34;12;11;
69123;PMS5003;56232;53.384;-2.732;2022-07-19T09:36:01;14;14;
69123;PMS5003;56232;53.384;-2.732;2022-07-19T09:38:27;11;10;
69123;PMS5003;56232;53.384;-2.732;2022-07-19T09:40:52;14;13;
69123;PMS5003;56232;53.384;-2.732;2022-07-19T09:43:17;12;12;
69123;PMS5003;56232;53.384;-2.732;2022-07-19T09:45:42;13;13;
69123;PMS5003;56232;53.384;-2.732;2022-07-19T09:48:08;14;14;
69123;PMS5003;56232;53.384;-2.732;2022-07-19T09:50:33;15;14;
69123;PMS5003;56232;53.384;-2.732;2022-07-19T09:53:00;15;14;
69123;PMS5003;56232;53.384;-2.732;2022-07-19T09:55:24;13;13;
69123;PMS5003;56232;53.384;-2.732;2022-07-19T09:57:50;12;12;
69123;PMS5003;56232;53.384;-2.732;2022-07-19T10:00:16;15;14;
69123;PMS5003;56232;53.384;-2.732;2022-07-19T10:02:41;13;13;
69123;PMS5003;56232;53.384;-2.732;2022-07-19T10:05:07;12;12;
69123;PMS5003;56232;53.384;-2.732;2022-07-19T10:07:32;13;12;
69123;PMS5003;56232;53.384;-2.732;2022-07-19T10:09:56;14;13;
69123;PMS5003;56232;53.384;-2.732;2022-07-19T10:12:22;13;13;
69123;PMS5003;56232;53.384;-2.732;2022-07-19T10:14:48;11;10;
69123;PMS5003;56232;53.384;-2.732;2022-07-19T10:17:20;14;14;
69123;PMS5003;56232;53.384;-2.732;2022-07-19T10:19:39;13;11;
69123;PMS5003;56232;53.384;-2.732;2022-07-19T10:22:04;12;12;
69123;PMS5003;56232;53.384;-2.732;2022-07-19T10:26:55;11;11;
69123;PMS5003;56232;53.384;-2.732;2022-07-19T10:29:22;10;9;
69123;PMS5003;56232;53.384;-2.732;2022-07-19T10:32:00;12;12;
69123;PMS5003;56232;53.384;-2.732;2022-07-19T10:34:20;15;14;
69123;PMS5003;56232;53.384;-2.732;2022-07-19T10:36:37;11;10;
69123;PMS5003;56232;53.384;-2.732;2022-07-19T10:41:27;13;13;
69123;PMS5003;56232;53.384;-2.732;2022-07-19T10:46:18;16;16;
69123;PMS5003;56232;53.384;-2.732;2022-07-19T10:48:45;12;11;
69123;PMS5003;56232;53.384;-2.732;2022-07-19T10:51:10;13;13;
69123;PMS5003;56232;53.384;-2.732;2022-07-19T10:58:25;13;13;
69123;PMS5003;56232;53.384;-2.732;2022-07-19T11:00:50;14;14;
69123;PMS5003;56232;53.384;-2.732;2022-07-19T11:05:45;14;13;
69123;PMS5003;56232;53.384;-2.732;2022-07-19T11:08:07;14;14;
69123;PMS5003;56232;53.384;-2.732;2022-07-19T11:10:33;13;12;
69123;PMS5003;56232;53.384;-2.732;2022-07-19T11:12:58;15;15;
69123;PMS5003;56232;53.384;-2.732;2022-07-19T11:15:24;14;14;
69123;PMS5003;56232;53.384;-2.732;2022-07-19T11:17:50;13;13;
69123;PMS5003;56232;53.384;-2.732;2022-07-19T11:20:14;17;17;
69123;PMS5003;56232;53.384;-2.732;2022-07-19T11:22:41;17;16;
69123;PMS5003;56232;53.384;-2.732;2022-07-19T11:25:06;14;14;
69123;PMS5003;56232;53.384;-2.732;2022-07-19T11:27:31;14;14;
69123;PMS5003;56232;53.384;-2.732;2022-07-19T11:29:57;16;15;
69123;PMS5003;56232;53.384;-2.732;2022-07-19T11:32:22;15;14;
69123;PMS5003;56232;53.384;-2.732;2022-07-19T11:37:13;14;14;
69123;PMS5003;56232;53.384;-2.732;2022-07-19T11:42:03;15;15;
69123;PMS5003;56232;53.384;-2.732;2022-07-19T11:44:28;20;19;
69123;PMS5003;56232;53.384;-2.732;2022-07-19T11:46:54;16;15;
69123;PMS5003;56232;53.384;-2.732;2022-07-19T11:49:19;14;14;
69123;PMS5003;56232;53.384;-2.732;2022-07-19T11:51:44;13;13;
69123;PMS5003;56232;53.384;-2.732;2022-07-19T11:54:10;16;15;
69123;PMS5003;56232;53.384;-2.732;2022-07-19T11:56:35;15;15;
69123;PMS5003;56232;53.384;-2.732;2022-07-19T11:59:02;16;14;
69123;PMS5003;56232;53.384;-2.732;2022-07-19T12:01:28;22;21;
69123;PMS5003;56232;53.384;-2.732;2022-07-19T12:03:53;19;19;
69123;PMS5003;56232;53.384;-2.732;2022-07-19T12:06:18;15;15;
69123;PMS5003;56232;53.384;-2.732;2022-07-19T12:08:43;16;15;
69123;PMS5003;56232;53.384;-2.732;2022-07-19T12:13:34;15;13;
69123;PMS5003;56232;53.384;-2.732;2022-07-19T12:16:00;14;12;
69123;PMS5003;56232;53.384;-2.732;2022-07-19T12:23:16;19;19;
69123;PMS5003;56232;53.384;-2.732;2022-07-19T12:25:41;15;14;
69123;PMS5003;56232;53.384;-2.732;2022-07-19T12:28:07;14;12;
69123;PMS5003;56232;53.384;-2.732;2022-07-19T12:30:32;16;13;
69123;PMS5003;56232;53.384;-2.732;2022-07-19T12:35:24;16;15;
69123;PMS5003;56232;53.384;-2.732;2022-07-19T12:37:49;14;14;
69123;PMS5003;56232;53.384;-2.732;2022-07-19T12:40:18;16;15;
69123;PMS5003;56232;53.384;-2.732;2022-07-19T12:42:42;15;14;
69123;PMS5003;56232;53.384;-2.732;2022-07-19T12:45:06;14;13;
69123;PMS5003;56232;53.384;-2.732;2022-07-19T12:47:31;16;15;
69123;PMS5003;56232;53.384;-2.732;2022-07-19T12:49:57;17;15;
69123;PMS5003;56232;53.384;-2.732;2022-07-19T12:52:22;14;14;
69123;PMS5003;56232;53.384;-2.732;2022-07-19T12:54:47;14;14;
69123;PMS5003;56232;53.384;-2.732;2022-07-19T12:57:13;13;13;
69123;PMS5003;56232;53.384;-2.732;2022-07-19T12:59:38;16;15;
69123;PMS5003;56232;53.384;-2.732;2022-07-19T13:02:04;16;15;
69123;PMS5003;56232;53.384;-2.732;2022-07-19T13:04:29;17;16;
69123;PMS5003;56232;53.384;-2.732;2022-07-19T13:06:54;15;14;
69123;PMS5003;56232;53.384;-2.732;2022-07-19T13:09:19;16;16;
69123;PMS5003;56232;53.384;-2.732;2022-07-19T13:11:45;21;18;
69123;PMS5003;56232;53.384;-2.732;2022-07-19T13:14:11;18;17;
69123;PMS5003;56232;53.384;-2.732;2022-07-19T13:16:37;16;16;
69123;PMS5003;56232;53.384;-2.732;2022-07-19T13:19:02;19;17;
69123;PMS5003;56232;53.384;-2.732;2022-07-19T13:21:27;17;17;
69123;PMS5003;56232;53.384;-2.732;2022-07-19T13:23:52;19;18;
69123;PMS5003;56232;53.384;-2.732;2022-07-19T13:26:18;18;18;
69123;PMS5003;56232;53.384;-2.732;2022-07-19T13:28:43;21;20;
69123;PMS5003;56232;53.384;-2.732;2022-07-19T13:31:08;21;21;
69123;PMS5003;56232;53.384;-2.732;2022-07-19T13:33:34;28;26;
69123;PMS5003;56232;53.384;-2.732;2022-07-19T13:36:00;36;35;
69123;PMS5003;56232;53.384;-2.732;2022-07-19T13:38:25;31;30;
69123;PMS5003;56232;53.384;-2.732;2022-07-19T13:40:51;29;28;
69123;PMS5003;56232;53.384;-2.732;2022-07-19T13:43:17;25;25;
69123;PMS5003;56232;53.384;-2.732;2022-07-19T13:45:41;26;26;
69123;PMS5003;56232;53.384;-2.732;2022-07-19T13:48:06;26;26;
69123;PMS5003;56232;53.384;-2.732;2022-07-19T13:50:32;22;22;
69123;PMS5003;56232;53.384;-2.732;2022-07-19T13:52:58;21;21;
69123;PMS5003;56232;53.384;-2.732;2022-07-19T13:55:23;19;18;
69123;PMS5003;56232;53.384;-2.732;2022-07-19T13:57:48;19;18;
69123;PMS5003;56232;53.384;-2.732;2022-07-19T14:00:14;19;19;
69123;PMS5003;56232;53.384;-2.732;2022-07-19T14:02:39;21;20;
69123;PMS5003;56232;53.384;-2.732;2022-07-19T14:05:04;21;20;
69123;PMS5003;56232;53.384;-2.732;2022-07-19T14:07:30;22;22;
69123;PMS5003;56232;53.384;-2.732;2022-07-19T14:09:55;20;20;
69123;PMS5003;56232;53.384;-2.732;2022-07-19T14:12:20;19;19;
69123;PMS5003;56232;53.384;-2.732;2022-07-19T14:14:46;18;18;
69123;PMS5003;56232;53.384;-2.732;2022-07-19T14:17:11;21;21;
69123;PMS5003;56232;53.384;-2.732;2022-07-19T14:19:36;19;19;
69123;PMS5003;56232;53.384;-2.732;2022-07-19T14:22:02;20;18;
69123;PMS5003;56232;53.384;-2.732;2022-07-19T14:24:28;20;19;
69123;PMS5003;56232;53.384;-2.732;2022-07-19T14:26:53;24;24;
69123;PMS5003;56232;53.384;-2.732;2022-07-19T14:29:19;27;27;
69123;PMS5003;56232;53.384;-2.732;2022-07-19T14:31:45;21;21;
69123;PMS5003;56232;53.384;-2.732;2022-07-19T14:34:11;25;23;
69123;PMS5003;56232;53.384;-2.732;2022-07-19T14:36:36;22;22;
69123;PMS5003;56232;53.384;-2.732;2022-07-19T14:39:02;22;21;
69123;PMS5003;56232;53.384;-2.732;2022-07-19T14:41:27;22;22;
69123;PMS5003;56232;53.384;-2.732;2022-07-19T14:43:52;22;22;
69123;PMS5003;56232;53.384;-2.732;2022-07-19T14:46:17;22;22;
69123;PMS5003;56232;53.384;-2.732;2022-07-19T14:48:43;25;24;
69123;PMS5003;56232;53.384;-2.732;2022-07-19T14:51:08;20;20;
69123;PMS5003;56232;53.384;-2.732;2022-07-19T14:53:34;21;19;
69123;PMS5003;56232;53.384;-2.732;2022-07-19T14:55:59;22;22;
69123;PMS5003;56232;53.384;-2.732;2022-07-19T14:58:25;20;20;
69123;PMS5003;56232;53.384;-2.732;2022-07-19T15:00:51;24;22;
69123;PMS5003;56232;53.384;-2.732;2022-07-19T15:03:16;23;23;
69123;PMS5003;56232;53.384;-2.732;2022-07-19T15:05:42;22;22;
69123;PMS5003;56232;53.384;-2.732;2022-07-19T15:08:07;23;22;
69123;PMS5003;56232;53.384;-2.732;2022-07-19T15:10:33;26;26;
69123;PMS5003;56232;53.384;-2.732;2022-07-19T15:12:58;24;24;
69123;PMS5003;56232;53.384;-2.732;2022-07-19T15:15:24;24;23;
69123;PMS5003;56232;53.384;-2.732;2022-07-19T15:17:49;19;19;
69123;PMS5003;56232;53.384;-2.732;2022-07-19T15:20:14;24;23;
69123;PMS5003;56232;53.384;-2.732;2022-07-19T15:22:40;24;23;
69123;PMS5003;56232;53.384;-2.732;2022-07-19T15:25:05;23;23;
69123;PMS5003;56232;53.384;-2.732;2022-07-19T15:27:31;24;23;
69123;PMS5003;56232;53.384;-2.732;2022-07-19T15:29:56;22;20;
69123;PMS5003;56232;53.384;-2.732;2022-07-19T15:32:21;28;28;
69123;PMS5003;56232;53.384;-2.732;2022-07-19T15:34:46;20;19;
69123;PMS5003;56232;53.384;-2.732;2022-07-19T15:37:12;23;23;
69123;PMS5003;56232;53.384;-2.732;2022-07-19T15:39:37;23;22;
69123;PMS5003;56232;53.384;-2.732;2022-07-19T15:42:03;22;22;
69123;PMS5003;56232;53.384;-2.732;2022-07-19T15:44:29;24;24;
69123;PMS5003;56232;53.384;-2.732;2022-07-19T15:46:54;26;25;
69123;PMS5003;56232;53.384;-2.732;2022-07-19T15:49:20;22;22;
69123;PMS5003;56232;53.384;-2.732;2022-07-19T15:51:45;24;23;
69123;PMS5003;56232;53.384;-2.732;2022-07-19T15:54:11;18;18;
69123;PMS5003;56232;53.384;-2.732;2022-07-19T15:56:37;21;20;
69123;PMS5003;56232;53.384;-2.732;2022-07-19T15:59:02;22;21;
69123;PMS5003;56232;53.384;-2.732;2022-07-19T16:01:28;24;24;
69123;PMS5003;56232;53.384;-2.732;2022-07-19T16:03:53;22;22;
69123;PMS5003;56232;53.384;-2.732;2022-07-19T16:06:19;25;24;
69123;PMS5003;56232;53.384;-2.732;2022-07-19T16:08:45;21;20;
69123;PMS5003;56232;53.384;-2.732;2022-07-19T16:11:10;19;19;
69123;PMS5003;56232;53.384;-2.732;2022-07-19T16:13:36;21;20;
69123;PMS5003;56232;53.384;-2.732;2022-07-19T16:16:01;21;21;
69123;PMS5003;56232;53.384;-2.732;2022-07-19T16:18:26;26;26;
69123;PMS5003;56232;53.384;-2.732;2022-07-19T16:20:52;23;22;